sensor_id;sensor_type;location;lat;lon;timestamp;temperature;humidity
22471;DHT22;11402;51.374;6.594;2022-12-22T00:00:32;9.00;99.90
22471;DHT22;11402;51.374;6.594;2022-12-22T00:03:17;9.00;99.90
22471;DHT22;11402;51.374;6.594;2022-12-22T00:06:01;9.00;99.90
22471;DHT22;11402;51.374;6.594;2022-12-22T00:08:45;9.10;99.90
22471;DHT22;11402;51.374;6.594;2022-12-22T00:11:30;9.00;99.90
22471;DHT22;11402;51.374;6.594;2022-12-22T00:14:14;9.10;99.90
22471;DHT22;11402;51.374;6.594;2022-12-22T00:17:01;9.10;99.90
22471;DHT22;11402;51.374;6.594;2022-12-22T00:19:45;9.10;99.90
22471;DHT22;11402;51.374;6.594;2022-12-22T00:22:30;9.10;99.90
22471;DHT22;11402;51.374;6.594;2022-12-22T00:25:15;9.00;99.90
22471;DHT22;11402;51.374;6.594;2022-12-22T00:28:01;9.00;99.90
22471;DHT22;11402;51.374;6.594;2022-12-22T00:30:47;9.00;99.90
22471;DHT22;11402;51.374;6.594;2022-12-22T00:33:31;9.00;99.90
22471;DHT22;11402;51.374;6.594;2022-12-22T00:36:15;9.10;99.90
22471;DHT22;11402;51.374;6.594;2022-12-22T00:39:01;9.10;99.90
22471;DHT22;11402;51.374;6.594;2022-12-22T00:41:45;9.00;99.90
22471;DHT22;11402;51.374;6.594;2022-12-22T00:44:29;9.10;99.90
22471;DHT22;11402;51.374;6.594;2022-12-22T00:47:27;9.20;99.90
22471;DHT22;11402;51.374;6.594;2022-12-22T00:50:12;9.30;99.90
22471;DHT22;11402;51.374;6.594;2022-12-22T00:52:58;9.30;99.90
22471;DHT22;11402;51.374;6.594;2022-12-22T00:55:43;9.30;99.90
22471;DHT22;11402;51.374;6.594;2022-12-22T00:58:27;9.20;99.90
22471;DHT22;11402;51.374;6.594;2022-12-22T01:01:12;9.20;99.90
22471;DHT22;11402;51.374;6.594;2022-12-22T01:03:56;9.20;99.90
22471;DHT22;11402;51.374;6.594;2022-12-22T01:06:41;9.20;99.90
22471;DHT22;11402;51.374;6.594;2022-12-22T01:09:25;9.20;99.90
22471;DHT22;11402;51.374;6.594;2022-12-22T01:12:17;9.10;99.90
22471;DHT22;11402;51.374;6.594;2022-12-22T01:15:02;9.30;99.90
22471;DHT22;11402;51.374;6.594;2022-12-22T01:17:46;9.20;99.90
22471;DHT22;11402;51.374;6.594;2022-12-22T01:20:31;9.20;99.90
22471;DHT22;11402;51.374;6.594;2022-12-22T01:23:15;9.20;99.90
22471;DHT22;11402;51.374;6.594;2022-12-22T01:25:59;9.20;99.90
22471;DHT22;11402;51.374;6.594;2022-12-22T01:28:43;9.20;99.90
22471;DHT22;11402;51.374;6.594;2022-12-22T01:31:30;9.20;99.90
22471;DHT22;11402;51.374;6.594;2022-12-22T01:34:15;9.20;99.90
22471;DHT22;11402;51.374;6.594;2022-12-22T01:36:59;9.30;99.90
22471;DHT22;11402;51.374;6.594;2022-12-22T01:39:44;9.30;99.90
22471;DHT22;11402;51.374;6.594;2022-12-22T01:42:31;9.30;99.90
22471;DHT22;11402;51.374;6.594;2022-12-22T01:45:27;9.20;99.90
22471;DHT22;11402;51.374;6.594;2022-12-22T01:48:13;9.30;99.90
22471;DHT22;11402;51.374;6.594;2022-12-22T01:51:00;9.40;99.90
22471;DHT22;11402;51.374;6.594;2022-12-22T01:53:45;9.30;99.90
22471;DHT22;11402;51.374;6.594;2022-12-22T01:56:31;9.30;99.90
22471;DHT22;11402;51.374;6.594;2022-12-22T01:59:16;9.30;99.90
22471;DHT22;11402;51.374;6.594;2022-12-22T02:02:04;9.30;99.90
22471;DHT22;11402;51.374;6.594;2022-12-22T02:04:48;9.30;99.90
22471;DHT22;11402;51.374;6.594;2022-12-22T02:14:06;9.30;99.90
22471;DHT22;11402;51.374;6.594;2022-12-22T02:23:17;9.30;99.90
22471;DHT22;11402;51.374;6.594;2022-12-22T02:26:22;9.40;99.90
22471;DHT22;11402;51.374;6.594;2022-12-22T02:29:08;9.30;99.90
22471;DHT22;11402;51.374;6.594;2022-12-22T02:31:53;9.40;99.90
22471;DHT22;11402;51.374;6.594;2022-12-22T02:34:38;9.40;99.90
22471;DHT22;11402;51.374;6.594;2022-12-22T02:37:44;9.50;99.90
22471;DHT22;11402;51.374;6.594;2022-12-22T02:41:05;9.60;99.90
22471;DHT22;11402;51.374;6.594;2022-12-22T02:47:14;9.60;99.90
22471;DHT22;11402;51.374;6.594;2022-12-22T02:53:30;9.60;99.90
22471;DHT22;11402;51.374;6.594;2022-12-22T02:56:14;9.70;99.90
22471;DHT22;11402;51.374;6.594;2022-12-22T02:58:58;9.50;99.90
22471;DHT22;11402;51.374;6.594;2022-12-22T03:01:44;9.50;99.90
22471;DHT22;11402;51.374;6.594;2022-12-22T03:04:29;9.50;99.90
22471;DHT22;11402;51.374;6.594;2022-12-22T03:07:13;9.50;99.90
22471;DHT22;11402;51.374;6.594;2022-12-22T03:09:57;9.50;99.90
22471;DHT22;11402;51.374;6.594;2022-12-22T03:12:42;9.40;99.90
22471;DHT22;11402;51.374;6.594;2022-12-22T03:15:26;9.50;99.90
22471;DHT22;11402;51.374;6.594;2022-12-22T03:18:11;9.40;99.90
22471;DHT22;11402;51.374;6.594;2022-12-22T03:20:56;9.50;99.90
22471;DHT22;11402;51.374;6.594;2022-12-22T03:23:40;9.50;99.90
22471;DHT22;11402;51.374;6.594;2022-12-22T03:26:24;9.40;99.90
22471;DHT22;11402;51.374;6.594;2022-12-22T03:28:50;9.50;99.90
22471;DHT22;11402;51.374;6.594;2022-12-22T03:31:16;9.50;99.90
22471;DHT22;11402;51.374;6.594;2022-12-22T03:33:41;9.50;99.90
22471;DHT22;11402;51.374;6.594;2022-12-22T03:36:08;9.50;99.90
22471;DHT22;11402;51.374;6.594;2022-12-22T03:38:34;9.60;99.90
22471;DHT22;11402;51.374;6.594;2022-12-22T03:40:59;9.60;99.90
22471;DHT22;11402;51.374;6.594;2022-12-22T03:43:25;9.60;99.90
22471;DHT22;11402;51.374;6.594;2022-12-22T03:46:11;9.60;99.90
22471;DHT22;11402;51.374;6.594;2022-12-22T03:49:03;9.60;99.90
22471;DHT22;11402;51.374;6.594;2022-12-22T03:51:40;9.50;99.90
22471;DHT22;11402;51.374;6.594;2022-12-22T03:54:06;9.60;99.90
22471;DHT22;11402;51.374;6.594;2022-12-22T03:56:31;9.50;99.90
22471;DHT22;11402;51.374;6.594;2022-12-22T03:58:57;9.50;99.90
22471;DHT22;11402;51.374;6.594;2022-12-22T04:01:23;9.60;99.90
22471;DHT22;11402;51.374;6.594;2022-12-22T04:03:49;9.60;99.90
22471;DHT22;11402;51.374;6.594;2022-12-22T04:06:15;9.60;99.90
22471;DHT22;11402;51.374;6.594;2022-12-22T04:08:41;9.60;99.90
22471;DHT22;11402;51.374;6.594;2022-12-22T04:11:10;9.60;99.90
22471;DHT22;11402;51.374;6.594;2022-12-22T04:13:54;9.60;99.90
22471;DHT22;11402;51.374;6.594;2022-12-22T04:16:20;9.60;99.90
22471;DHT22;11402;51.374;6.594;2022-12-22T04:18:46;9.50;99.90
22471;DHT22;11402;51.374;6.594;2022-12-22T04:21:11;9.60;99.90
22471;DHT22;11402;51.374;6.594;2022-12-22T04:23:37;9.60;99.90
22471;DHT22;11402;51.374;6.594;2022-12-22T04:26:02;9.60;99.90
22471;DHT22;11402;51.374;6.594;2022-12-22T04:28:28;9.60;99.90
22471;DHT22;11402;51.374;6.594;2022-12-22T04:30:54;9.60;99.90
22471;DHT22;11402;51.374;6.594;2022-12-22T04:33:19;9.60;99.90
22471;DHT22;11402;51.374;6.594;2022-12-22T04:35:45;9.60;99.90
22471;DHT22;11402;51.374;6.594;2022-12-22T04:38:10;9.60;99.90
22471;DHT22;11402;51.374;6.594;2022-12-22T04:40:36;9.60;99.90
22471;DHT22;11402;51.374;6.594;2022-12-22T04:43:01;9.60;99.90
22471;DHT22;11402;51.374;6.594;2022-12-22T04:45:27;9.60;99.90
22471;DHT22;11402;51.374;6.594;2022-12-22T04:47:53;9.60;99.90
22471;DHT22;11402;51.374;6.594;2022-12-22T04:50:18;9.50;99.90
22471;DHT22;11402;51.374;6.594;2022-12-22T04:52:44;9.60;99.90
22471;DHT22;11402;51.374;6.594;2022-12-22T04:55:09;9.70;99.90
22471;DHT22;11402;51.374;6.594;2022-12-22T04:57:35;9.60;99.90
22471;DHT22;11402;51.374;6.594;2022-12-22T05:00:01;9.60;99.90
22471;DHT22;11402;51.374;6.594;2022-12-22T05:02:27;9.60;99.90
22471;DHT22;11402;51.374;6.594;2022-12-22T05:04:53;9.60;99.90
22471;DHT22;11402;51.374;6.594;2022-12-22T05:07:18;9.60;99.90
22471;DHT22;11402;51.374;6.594;2022-12-22T05:09:45;9.60;99.90
22471;DHT22;11402;51.374;6.594;2022-12-22T05:12:10;9.60;99.90
22471;DHT22;11402;51.374;6.594;2022-12-22T05:14:54;9.70;99.90
22471;DHT22;11402;51.374;6.594;2022-12-22T05:17:20;9.60;99.90
22471;DHT22;11402;51.374;6.594;2022-12-22T05:19:45;9.70;99.90
22471;DHT22;11402;51.374;6.594;2022-12-22T05:22:11;9.60;99.90
22471;DHT22;11402;51.374;6.594;2022-12-22T05:24:36;9.60;99.90
22471;DHT22;11402;51.374;6.594;2022-12-22T05:27:02;9.60;99.90
22471;DHT22;11402;51.374;6.594;2022-12-22T05:29:28;9.60;99.90
22471;DHT22;11402;51.374;6.594;2022-12-22T05:31:53;9.60;99.90
22471;DHT22;11402;51.374;6.594;2022-12-22T05:34:19;9.70;99.90
22471;DHT22;11402;51.374;6.594;2022-12-22T05:36:44;9.60;99.90
22471;DHT22;11402;51.374;6.594;2022-12-22T05:39:10;9.70;99.90
22471;DHT22;11402;51.374;6.594;2022-12-22T05:41:35;9.60;99.90
22471;DHT22;11402;51.374;6.594;2022-12-22T05:44:01;9.60;99.90
22471;DHT22;11402;51.374;6.594;2022-12-22T05:46:26;9.70;99.90
22471;DHT22;11402;51.374;6.594;2022-12-22T05:48:52;9.80;99.90
22471;DHT22;11402;51.374;6.594;2022-12-22T05:51:17;9.70;99.90
22471;DHT22;11402;51.374;6.594;2022-12-22T05:53:43;9.60;99.90
22471;DHT22;11402;51.374;6.594;2022-12-22T05:56:08;9.70;99.90
22471;DHT22;11402;51.374;6.594;2022-12-22T05:58:37;10.00;99.90
22471;DHT22;11402;51.374;6.594;2022-12-22T06:01:03;9.90;99.90
22471;DHT22;11402;51.374;6.594;2022-12-22T06:03:29;9.60;99.90
22471;DHT22;11402;51.374;6.594;2022-12-22T06:05:55;9.50;99.90
22471;DHT22;11402;51.374;6.594;2022-12-22T06:08:21;9.60;99.90
22471;DHT22;11402;51.374;6.594;2022-12-22T06:10:46;9.60;99.90
22471;DHT22;11402;51.374;6.594;2022-12-22T06:13:12;9.60;99.90
22471;DHT22;11402;51.374;6.594;2022-12-22T06:15:37;9.60;99.90
22471;DHT22;11402;51.374;6.594;2022-12-22T06:18:03;9.60;99.90
22471;DHT22;11402;51.374;6.594;2022-12-22T06:20:28;9.50;99.90
22471;DHT22;11402;51.374;6.594;2022-12-22T06:22:54;9.60;99.90
22471;DHT22;11402;51.374;6.594;2022-12-22T06:25:20;9.60;99.90
22471;DHT22;11402;51.374;6.594;2022-12-22T06:27:46;9.70;99.90
22471;DHT22;11402;51.374;6.594;2022-12-22T06:30:12;9.80;99.90
22471;DHT22;11402;51.374;6.594;2022-12-22T06:32:38;9.70;99.90
22471;DHT22;11402;51.374;6.594;2022-12-22T06:35:04;9.70;99.90
22471;DHT22;11402;51.374;6.594;2022-12-22T06:37:30;9.80;99.90
22471;DHT22;11402;51.374;6.594;2022-12-22T06:39:56;9.70;99.90
22471;DHT22;11402;51.374;6.594;2022-12-22T06:42:21;9.70;99.90
22471;DHT22;11402;51.374;6.594;2022-12-22T06:45:06;9.70;99.90
22471;DHT22;11402;51.374;6.594;2022-12-22T06:47:32;9.70;99.90
22471;DHT22;11402;51.374;6.594;2022-12-22T06:49:57;9.80;99.90
22471;DHT22;11402;51.374;6.594;2022-12-22T06:52:23;9.80;99.90
22471;DHT22;11402;51.374;6.594;2022-12-22T06:54:48;9.70;99.90
22471;DHT22;11402;51.374;6.594;2022-12-22T06:57:14;9.70;99.90
22471;DHT22;11402;51.374;6.594;2022-12-22T06:59:39;9.70;99.90
22471;DHT22;11402;51.374;6.594;2022-12-22T07:02:05;9.90;99.90
22471;DHT22;11402;51.374;6.594;2022-12-22T07:04:31;9.80;99.90
22471;DHT22;11402;51.374;6.594;2022-12-22T07:06:56;9.90;99.90
22471;DHT22;11402;51.374;6.594;2022-12-22T07:09:22;9.90;99.90
22471;DHT22;11402;51.374;6.594;2022-12-22T07:11:48;9.90;99.90
22471;DHT22;11402;51.374;6.594;2022-12-22T07:14:13;9.90;99.90
22471;DHT22;11402;51.374;6.594;2022-12-22T07:16:39;9.90;99.90
22471;DHT22;11402;51.374;6.594;2022-12-22T07:19:04;9.70;99.90
22471;DHT22;11402;51.374;6.594;2022-12-22T07:21:30;9.70;99.90
22471;DHT22;11402;51.374;6.594;2022-12-22T07:23:56;9.60;99.90
22471;DHT22;11402;51.374;6.594;2022-12-22T07:26:21;9.70;99.90
22471;DHT22;11402;51.374;6.594;2022-12-22T07:28:47;9.60;99.90
22471;DHT22;11402;51.374;6.594;2022-12-22T07:31:15;9.60;99.90
22471;DHT22;11402;51.374;6.594;2022-12-22T07:33:41;9.70;99.90
22471;DHT22;11402;51.374;6.594;2022-12-22T07:36:10;9.70;99.90
22471;DHT22;11402;51.374;6.594;2022-12-22T07:38:38;9.70;99.90
22471;DHT22;11402;51.374;6.594;2022-12-22T07:41:05;9.70;99.90
22471;DHT22;11402;51.374;6.594;2022-12-22T07:43:50;9.70;99.90
22471;DHT22;11402;51.374;6.594;2022-12-22T07:46:15;9.80;99.90
22471;DHT22;11402;51.374;6.594;2022-12-22T07:48:41;9.80;99.90
22471;DHT22;11402;51.374;6.594;2022-12-22T07:51:25;9.80;99.90
22471;DHT22;11402;51.374;6.594;2022-12-22T07:53:51;9.80;99.90
22471;DHT22;11402;51.374;6.594;2022-12-22T07:56:16;9.80;99.90
22471;DHT22;11402;51.374;6.594;2022-12-22T07:58:42;9.70;99.90
22471;DHT22;11402;51.374;6.594;2022-12-22T08:01:07;9.70;99.90
22471;DHT22;11402;51.374;6.594;2022-12-22T08:03:33;9.70;99.90
22471;DHT22;11402;51.374;6.594;2022-12-22T08:06:03;9.70;99.90
22471;DHT22;11402;51.374;6.594;2022-12-22T08:08:28;9.70;99.90
22471;DHT22;11402;51.374;6.594;2022-12-22T08:10:54;9.60;99.90
22471;DHT22;11402;51.374;6.594;2022-12-22T08:13:19;9.60;99.90
22471;DHT22;11402;51.374;6.594;2022-12-22T08:15:45;9.60;99.90
22471;DHT22;11402;51.374;6.594;2022-12-22T08:18:10;9.60;99.90
22471;DHT22;11402;51.374;6.594;2022-12-22T08:20:36;9.70;99.90
22471;DHT22;11402;51.374;6.594;2022-12-22T08:23:02;9.60;99.90
22471;DHT22;11402;51.374;6.594;2022-12-22T08:25:29;9.60;99.90
22471;DHT22;11402;51.374;6.594;2022-12-22T08:27:55;9.60;99.90
22471;DHT22;11402;51.374;6.594;2022-12-22T08:30:21;9.60;99.90
22471;DHT22;11402;51.374;6.594;2022-12-22T08:32:48;9.60;99.90
22471;DHT22;11402;51.374;6.594;2022-12-22T08:35:14;9.70;99.90
22471;DHT22;11402;51.374;6.594;2022-12-22T08:37:42;9.80;99.90
22471;DHT22;11402;51.374;6.594;2022-12-22T08:40:13;9.70;99.90
22471;DHT22;11402;51.374;6.594;2022-12-22T08:42:41;9.70;99.90
22471;DHT22;11402;51.374;6.594;2022-12-22T08:45:07;9.80;99.90
22471;DHT22;11402;51.374;6.594;2022-12-22T08:47:33;9.80;99.90
22471;DHT22;11402;51.374;6.594;2022-12-22T08:49:59;9.80;99.90
22471;DHT22;11402;51.374;6.594;2022-12-22T08:52:24;9.90;99.90
22471;DHT22;11402;51.374;6.594;2022-12-22T08:54:50;9.90;99.90
22471;DHT22;11402;51.374;6.594;2022-12-22T08:57:16;9.90;99.90
22471;DHT22;11402;51.374;6.594;2022-12-22T08:59:41;9.90;99.90
22471;DHT22;11402;51.374;6.594;2022-12-22T09:02:07;10.00;99.90
22471;DHT22;11402;51.374;6.594;2022-12-22T09:04:33;10.10;99.90
22471;DHT22;11402;51.374;6.594;2022-12-22T09:06:59;10.00;99.90
22471;DHT22;11402;51.374;6.594;2022-12-22T09:09:30;10.00;99.90
22471;DHT22;11402;51.374;6.594;2022-12-22T09:11:56;10.00;99.90
22471;DHT22;11402;51.374;6.594;2022-12-22T09:14:22;10.10;99.90
22471;DHT22;11402;51.374;6.594;2022-12-22T09:16:48;10.10;99.90
22471;DHT22;11402;51.374;6.594;2022-12-22T09:19:15;10.20;99.90
22471;DHT22;11402;51.374;6.594;2022-12-22T09:21:40;10.10;99.90
22471;DHT22;11402;51.374;6.594;2022-12-22T09:24:06;10.10;99.90
22471;DHT22;11402;51.374;6.594;2022-12-22T09:26:32;10.00;99.90
22471;DHT22;11402;51.374;6.594;2022-12-22T09:28:57;9.90;99.90
22471;DHT22;11402;51.374;6.594;2022-12-22T09:31:24;9.90;99.90
22471;DHT22;11402;51.374;6.594;2022-12-22T09:33:50;9.90;99.90
22471;DHT22;11402;51.374;6.594;2022-12-22T09:36:19;9.90;99.90
22471;DHT22;11402;51.374;6.594;2022-12-22T09:38:45;10.00;99.90
22471;DHT22;11402;51.374;6.594;2022-12-22T09:41:19;9.90;99.90
22471;DHT22;11402;51.374;6.594;2022-12-22T09:43:46;10.00;99.90
22471;DHT22;11402;51.374;6.594;2022-12-22T09:46:24;10.00;99.90
22471;DHT22;11402;51.374;6.594;2022-12-22T09:48:51;10.10;99.90
22471;DHT22;11402;51.374;6.594;2022-12-22T09:51:17;10.10;99.90
22471;DHT22;11402;51.374;6.594;2022-12-22T09:53:45;10.10;99.90
22471;DHT22;11402;51.374;6.594;2022-12-22T09:56:14;10.20;99.90
22471;DHT22;11402;51.374;6.594;2022-12-22T09:58:40;10.10;99.90
22471;DHT22;11402;51.374;6.594;2022-12-22T10:01:13;10.20;99.90
22471;DHT22;11402;51.374;6.594;2022-12-22T10:04:03;10.10;99.90
22471;DHT22;11402;51.374;6.594;2022-12-22T10:09:16;10.10;99.90
22471;DHT22;11402;51.374;6.594;2022-12-22T10:11:53;10.10;99.90
22471;DHT22;11402;51.374;6.594;2022-12-22T10:14:20;10.10;99.90
22471;DHT22;11402;51.374;6.594;2022-12-22T10:16:46;10.10;99.90
22471;DHT22;11402;51.374;6.594;2022-12-22T10:19:13;10.10;99.90
22471;DHT22;11402;51.374;6.594;2022-12-22T10:21:39;10.10;99.90
22471;DHT22;11402;51.374;6.594;2022-12-22T10:24:26;10.10;99.90
22471;DHT22;11402;51.374;6.594;2022-12-22T10:26:59;10.00;99.90
22471;DHT22;11402;51.374;6.594;2022-12-22T10:29:26;10.00;99.90
22471;DHT22;11402;51.374;6.594;2022-12-22T10:32:01;10.20;99.90
22471;DHT22;11402;51.374;6.594;2022-12-22T10:34:27;10.40;99.90
22471;DHT22;11402;51.374;6.594;2022-12-22T10:37:02;10.30;99.90
22471;DHT22;11402;51.374;6.594;2022-12-22T10:39:33;10.20;99.90
22471;DHT22;11402;51.374;6.594;2022-12-22T10:42:06;10.30;99.90
22471;DHT22;11402;51.374;6.594;2022-12-22T10:44:32;10.30;99.90
22471;DHT22;11402;51.374;6.594;2022-12-22T10:47:10;10.30;99.90
22471;DHT22;11402;51.374;6.594;2022-12-22T10:49:43;10.30;99.90
22471;DHT22;11402;51.374;6.594;2022-12-22T10:54:35;10.10;99.90
22471;DHT22;11402;51.374;6.594;2022-12-22T10:57:03;10.10;99.90
22471;DHT22;11402;51.374;6.594;2022-12-22T10:59:30;10.20;99.90
22471;DHT22;11402;51.374;6.594;2022-12-22T11:04:50;10.20;99.90
22471;DHT22;11402;51.374;6.594;2022-12-22T11:07:16;10.40;99.90
22471;DHT22;11402;51.374;6.594;2022-12-22T11:09:42;10.40;99.90
22471;DHT22;11402;51.374;6.594;2022-12-22T11:12:12;10.30;99.90
22471;DHT22;11402;51.374;6.594;2022-12-22T11:17:19;10.20;99.90
22471;DHT22;11402;51.374;6.594;2022-12-22T11:23:27;10.20;99.90
22471;DHT22;11402;51.374;6.594;2022-12-22T11:26:18;10.20;99.90
22471;DHT22;11402;51.374;6.594;2022-12-22T11:28:49;10.10;99.90
22471;DHT22;11402;51.374;6.594;2022-12-22T11:31:31;10.20;99.90
22471;DHT22;11402;51.374;6.594;2022-12-22T11:34:19;10.10;99.90
22471;DHT22;11402;51.374;6.594;2022-12-22T11:37:15;10.10;99.90
22471;DHT22;11402;51.374;6.594;2022-12-22T11:40:32;10.20;99.90
22471;DHT22;11402;51.374;6.594;2022-12-22T11:45:51;10.30;99.90
22471;DHT22;11402;51.374;6.594;2022-12-22T11:57:01;10.30;99.90
22471;DHT22;11402;51.374;6.594;2022-12-22T11:59:41;10.20;99.90
22471;DHT22;11402;51.374;6.594;2022-12-22T12:10:56;10.00;99.90
22471;DHT22;11402;51.374;6.594;2022-12-22T12:13:53;10.00;99.90
22471;DHT22;11402;51.374;6.594;2022-12-22T12:16:56;10.10;99.90
22471;DHT22;11402;51.374;6.594;2022-12-22T12:19:58;10.10;99.90
22471;DHT22;11402;51.374;6.594;2022-12-22T12:25:31;10.20;99.90
22471;DHT22;11402;51.374;6.594;2022-12-22T12:28:23;10.20;99.90
22471;DHT22;11402;51.374;6.594;2022-12-22T12:31:00;10.20;99.90
22471;DHT22;11402;51.374;6.594;2022-12-22T12:33:41;10.00;99.90
22471;DHT22;11402;51.374;6.594;2022-12-22T12:39:29;10.10;99.90
22471;DHT22;11402;51.374;6.594;2022-12-22T12:44:59;10.20;99.90
22471;DHT22;11402;51.374;6.594;2022-12-22T12:47:34;10.20;99.90
22471;DHT22;11402;51.374;6.594;2022-12-22T12:57:55;10.20;99.90
22471;DHT22;11402;51.374;6.594;2022-12-22T13:03:04;10.10;99.90
22471;DHT22;11402;51.374;6.594;2022-12-22T13:05:33;10.10;99.90
22471;DHT22;11402;51.374;6.594;2022-12-22T13:08:21;10.10;99.90
22471;DHT22;11402;51.374;6.594;2022-12-22T13:18:40;10.00;99.90
22471;DHT22;11402;51.374;6.594;2022-12-22T13:21:21;10.10;99.90
22471;DHT22;11402;51.374;6.594;2022-12-22T13:23:55;10.20;99.90
22471;DHT22;11402;51.374;6.594;2022-12-22T13:28:58;10.10;99.90
22471;DHT22;11402;51.374;6.594;2022-12-22T13:31:28;10.00;99.90
22471;DHT22;11402;51.374;6.594;2022-12-22T13:36:42;10.20;99.90
22471;DHT22;11402;51.374;6.594;2022-12-22T13:39:13;10.20;99.90
22471;DHT22;11402;51.374;6.594;2022-12-22T13:41:40;10.30;99.90
22471;DHT22;11402;51.374;6.594;2022-12-22T13:44:12;10.30;99.90
22471;DHT22;11402;51.374;6.594;2022-12-22T13:46:39;10.40;99.90
22471;DHT22;11402;51.374;6.594;2022-12-22T13:49:08;10.40;99.90
22471;DHT22;11402;51.374;6.594;2022-12-22T13:51:37;10.40;99.90
22471;DHT22;11402;51.374;6.594;2022-12-22T13:54:23;10.40;99.90
22471;DHT22;11402;51.374;6.594;2022-12-22T13:56:55;10.40;99.90
22471;DHT22;11402;51.374;6.594;2022-12-22T13:59:43;10.30;99.90
22471;DHT22;11402;51.374;6.594;2022-12-22T14:04:39;10.40;99.90
22471;DHT22;11402;51.374;6.594;2022-12-22T14:07:12;10.30;99.90
22471;DHT22;11402;51.374;6.594;2022-12-22T14:09:43;10.40;99.90
22471;DHT22;11402;51.374;6.594;2022-12-22T14:12:18;10.40;99.90
22471;DHT22;11402;51.374;6.594;2022-12-22T14:14:46;10.30;99.90
22471;DHT22;11402;51.374;6.594;2022-12-22T14:17:25;10.20;99.90
22471;DHT22;11402;51.374;6.594;2022-12-22T14:19:54;10.00;99.90
22471;DHT22;11402;51.374;6.594;2022-12-22T14:22:34;10.20;99.90
22471;DHT22;11402;51.374;6.594;2022-12-22T14:25:07;10.20;99.90
22471;DHT22;11402;51.374;6.594;2022-12-22T14:27:56;10.20;99.90
22471;DHT22;11402;51.374;6.594;2022-12-22T14:30:29;10.20;99.90
22471;DHT22;11402;51.374;6.594;2022-12-22T14:35:47;10.10;99.90
22471;DHT22;11402;51.374;6.594;2022-12-22T14:38:23;10.20;99.90
22471;DHT22;11402;51.374;6.594;2022-12-22T14:40:49;9.90;99.90
22471;DHT22;11402;51.374;6.594;2022-12-22T14:45:45;9.80;99.90
22471;DHT22;11402;51.374;6.594;2022-12-22T14:48:18;9.80;99.90
22471;DHT22;11402;51.374;6.594;2022-12-22T14:50:48;9.80;99.90
22471;DHT22;11402;51.374;6.594;2022-12-22T14:53:14;9.90;99.90
22471;DHT22;11402;51.374;6.594;2022-12-22T14:55:49;9.80;99.90
22471;DHT22;11402;51.374;6.594;2022-12-22T14:58:21;9.90;99.90
22471;DHT22;11402;51.374;6.594;2022-12-22T15:04:05;9.80;99.90
22471;DHT22;11402;51.374;6.594;2022-12-22T15:06:34;9.90;99.90
22471;DHT22;11402;51.374;6.594;2022-12-22T15:11:30;9.80;99.90
22471;DHT22;11402;51.374;6.594;2022-12-22T15:13:56;9.70;99.90
22471;DHT22;11402;51.374;6.594;2022-12-22T15:16:23;9.90;99.90
22471;DHT22;11402;51.374;6.594;2022-12-22T15:18:50;9.90;99.90
22471;DHT22;11402;51.374;6.594;2022-12-22T15:21:17;9.80;99.90
22471;DHT22;11402;51.374;6.594;2022-12-22T15:23:43;9.80;99.90
22471;DHT22;11402;51.374;6.594;2022-12-22T15:26:09;9.70;99.90
22471;DHT22;11402;51.374;6.594;2022-12-22T15:28:35;9.60;99.90
22471;DHT22;11402;51.374;6.594;2022-12-22T15:31:02;9.50;99.90
22471;DHT22;11402;51.374;6.594;2022-12-22T15:33:29;9.60;99.90
22471;DHT22;11402;51.374;6.594;2022-12-22T15:35:55;9.60;99.90
22471;DHT22;11402;51.374;6.594;2022-12-22T15:38:23;9.60;99.90
22471;DHT22;11402;51.374;6.594;2022-12-22T15:40:49;9.50;99.90
22471;DHT22;11402;51.374;6.594;2022-12-22T15:43:15;9.50;99.90
22471;DHT22;11402;51.374;6.594;2022-12-22T15:45:42;9.50;99.90
22471;DHT22;11402;51.374;6.594;2022-12-22T15:48:37;9.60;99.90
22471;DHT22;11402;51.374;6.594;2022-12-22T15:51:05;9.70;99.90
22471;DHT22;11402;51.374;6.594;2022-12-22T15:53:32;9.60;99.90
22471;DHT22;11402;51.374;6.594;2022-12-22T15:55:58;9.60;99.90
22471;DHT22;11402;51.374;6.594;2022-12-22T15:58:26;9.50;99.90
22471;DHT22;11402;51.374;6.594;2022-12-22T16:00:55;9.60;99.90
22471;DHT22;11402;51.374;6.594;2022-12-22T16:03:20;9.60;99.90
22471;DHT22;11402;51.374;6.594;2022-12-22T16:05:46;9.60;99.90
22471;DHT22;11402;51.374;6.594;2022-12-22T16:08:14;9.60;99.90
22471;DHT22;11402;51.374;6.594;2022-12-22T16:10:41;9.50;99.90
22471;DHT22;11402;51.374;6.594;2022-12-22T16:13:11;9.60;99.90
22471;DHT22;11402;51.374;6.594;2022-12-22T16:15:38;9.70;99.90
22471;DHT22;11402;51.374;6.594;2022-12-22T16:18:04;9.60;99.90
22471;DHT22;11402;51.374;6.594;2022-12-22T16:20:36;9.70;99.90
22471;DHT22;11402;51.374;6.594;2022-12-22T16:23:03;9.60;99.90
22471;DHT22;11402;51.374;6.594;2022-12-22T16:25:34;9.50;99.90
22471;DHT22;11402;51.374;6.594;2022-12-22T16:28:00;9.40;99.90
22471;DHT22;11402;51.374;6.594;2022-12-22T16:30:28;9.40;99.90
22471;DHT22;11402;51.374;6.594;2022-12-22T16:32:55;9.40;99.90
22471;DHT22;11402;51.374;6.594;2022-12-22T16:35:23;9.40;99.90
22471;DHT22;11402;51.374;6.594;2022-12-22T16:37:53;9.40;99.90
22471;DHT22;11402;51.374;6.594;2022-12-22T16:40:19;9.30;99.90
22471;DHT22;11402;51.374;6.594;2022-12-22T16:43:01;9.40;99.90
22471;DHT22;11402;51.374;6.594;2022-12-22T16:45:29;9.30;99.90
22471;DHT22;11402;51.374;6.594;2022-12-22T16:47:58;9.30;99.90
22471;DHT22;11402;51.374;6.594;2022-12-22T16:50:26;9.30;99.90
22471;DHT22;11402;51.374;6.594;2022-12-22T16:53:02;9.30;99.90
22471;DHT22;11402;51.374;6.594;2022-12-22T16:55:28;9.20;99.90
22471;DHT22;11402;51.374;6.594;2022-12-22T16:57:54;9.10;99.90
22471;DHT22;11402;51.374;6.594;2022-12-22T17:00:22;9.10;99.90
22471;DHT22;11402;51.374;6.594;2022-12-22T17:02:58;9.00;99.90
22471;DHT22;11402;51.374;6.594;2022-12-22T17:05:29;9.10;99.90
22471;DHT22;11402;51.374;6.594;2022-12-22T17:07:58;9.20;99.90
22471;DHT22;11402;51.374;6.594;2022-12-22T17:10:24;9.40;99.90
22471;DHT22;11402;51.374;6.594;2022-12-22T17:12:52;9.30;99.90
22471;DHT22;11402;51.374;6.594;2022-12-22T17:15:20;9.10;99.90
22471;DHT22;11402;51.374;6.594;2022-12-22T17:17:47;9.00;99.90
22471;DHT22;11402;51.374;6.594;2022-12-22T17:20:14;9.00;99.90
22471;DHT22;11402;51.374;6.594;2022-12-22T17:22:42;9.10;99.90
22471;DHT22;11402;51.374;6.594;2022-12-22T17:25:15;9.10;99.90
22471;DHT22;11402;51.374;6.594;2022-12-22T17:27:41;9.20;99.90
22471;DHT22;11402;51.374;6.594;2022-12-22T17:30:19;9.20;99.90
22471;DHT22;11402;51.374;6.594;2022-12-22T17:32:45;9.20;99.90
22471;DHT22;11402;51.374;6.594;2022-12-22T17:35:15;9.20;99.90
22471;DHT22;11402;51.374;6.594;2022-12-22T17:37:43;9.20;99.90
22471;DHT22;11402;51.374;6.594;2022-12-22T17:40:24;9.30;99.90
22471;DHT22;11402;51.374;6.594;2022-12-22T17:42:51;9.20;99.90
22471;DHT22;11402;51.374;6.594;2022-12-22T17:45:17;9.20;99.90
22471;DHT22;11402;51.374;6.594;2022-12-22T17:47:43;9.30;99.90
22471;DHT22;11402;51.374;6.594;2022-12-22T17:50:12;9.40;99.90
22471;DHT22;11402;51.374;6.594;2022-12-22T17:52:39;9.40;99.90
22471;DHT22;11402;51.374;6.594;2022-12-22T17:55:15;9.40;99.90